Time;durP1;ratioP1;P1;durP2;ratioP2;P2;SDS_P1;SDS_P2;PMS_P1;PMS_P2;Temp;Humidity;BMP_temperature;BMP_pressure;BME280_temperature;BME280_humidity;BME280_pressure;Samples;Min_cycle;Max_cycle;Signal;HPM_P1;HPM_P2
2021/12/11 00:01:51;;;;;;;1.88;1.50;;;;;;;4.26;97.92;96599.22;5120147;28;20044;-95
2021/12/11 00:04:29;;;;;;;1.70;1.58;;;;;;;4.13;95.99;96567.25;5119394;28;20063;-96
2021/12/11 00:06:56;;;;;;;2.90;1.58;;;;;;;4.17;96.41;96571.47;5120023;28;20557;-94
2021/12/11 00:09:27;;;;;;;2.78;1.67;;;;;;;4.14;97.35;96560.19;5116886;28;20044;-96
2021/12/11 00:11:56;;;;;;;2.28;1.58;;;;;;;4.21;97.92;96573.09;5117775;28;20047;-95
2021/12/11 00:14:23;;;;;;;2.65;1.40;;;;;;;4.13;98.07;96559.34;5119900;28;20043;-94
2021/12/11 00:16:50;;;;;;;2.05;1.60;;;;;;;4.12;99.27;96560.28;5120172;28;20044;-93
2021/12/11 00:19:22;;;;;;;1.95;1.50;;;;;;;4.21;99.15;96573.09;5118924;28;20044;-94
2021/12/11 00:21:49;;;;;;;2.20;1.60;;;;;;;4.18;99.39;96562.66;5105371;28;20131;-94
2021/12/11 00:24:18;;;;;;;1.75;1.50;;;;;;;4.21;98.89;96570.44;5108326;28;20048;-94
2021/12/11 00:26:50;;;;;;;3.72;1.80;;;;;;;4.16;99.87;96574.16;5108816;28;20048;-94
2021/12/11 00:29:21;;;;;;;2.30;1.70;;;;;;;4.16;100.00;96571.53;5107020;28;20044;-95
2021/12/11 00:31:49;;;;;;;1.77;1.50;;;;;;;4.21;100.00;96569.59;5106891;28;20131;-94
2021/12/11 00:34:17;;;;;;;2.60;1.60;;;;;;;4.17;99.39;96568.84;5105383;28;20052;-96
2021/12/11 00:36:50;;;;;;;2.15;1.67;;;;;;;4.20;99.89;96575.75;5104142;28;20036;-94
2021/12/11 00:39:18;;;;;;;2.22;1.63;;;;;;;4.19;100.00;96568.78;5106386;28;20070;-94
2021/12/11 00:41:53;;;;;;;2.17;1.52;;;;;;;4.19;100.00;96582.81;5104717;28;20044;-95
2021/12/11 00:44:19;;;;;;;2.78;1.80;;;;;;;4.19;100.00;96580.16;5100091;28;20093;-94
2021/12/11 00:46:45;;;;;;;2.55;1.80;;;;;;;4.13;100.00;96576.91;5098073;28;20401;-96
2021/12/11 00:49:16;;;;;;;3.88;2.00;;;;;;;4.34;100.00;96602.44;5099259;28;20394;-93
2021/12/11 00:51:49;;;;;;;2.20;1.60;;;;;;;4.17;100.00;96578.50;5097944;28;20040;-94
2021/12/11 00:54:15;;;;;;;3.45;1.83;;;;;;;4.27;100.00;96595.66;5098083;28;20044;-95
2021/12/11 00:56:42;;;;;;;2.63;1.70;;;;;;;4.23;100.00;96586.16;5098149;28;20040;-95
2021/12/11 00:59:14;;;;;;;2.58;1.70;;;;;;;4.26;100.00;96589.53;5099102;28;20512;-94
2021/12/11 01:01:48;;;;;;;2.03;1.73;;;;;;;4.18;100.00;96588.09;5099649;28;20514;-94
2021/12/11 01:04:16;;;;;;;2.63;1.60;;;;;;;4.21;100.00;96594.13;5098755;28;20048;-94
2021/12/11 01:06:50;;;;;;;2.08;1.75;;;;;;;4.18;100.00;96586.31;5100286;28;20075;-95
2021/12/11 01:09:19;;;;;;;3.47;1.63;;;;;;;4.22;100.00;96597.59;5099081;28;20075;-95
2021/12/11 01:11:49;;;;;;;2.53;1.80;;;;;;;4.20;100.00;96586.28;5101901;28;20101;-95
2021/12/11 01:17:36;;;;;;;2.97;1.80;;;;;;;4.36;100.00;96605.88;5138988;27;20379;-94
2021/12/11 01:20:11;;;;;;;2.17;1.55;;;;;;;4.31;99.83;96602.53;5137923;27;20069;-94
2021/12/11 01:22:38;;;;;;;2.25;1.60;;;;;;;4.36;99.23;96616.38;5139285;27;20501;-95
2021/12/11 01:25:08;;;;;;;1.20;1.10;;;;;;;4.44;99.22;96621.34;5137676;27;20445;-94
2021/12/11 01:27:36;;;;;;;1.65;1.52;;;;;;;4.45;97.80;96629.19;5138013;27;20054;-94
2021/12/11 01:30:05;;;;;;;1.40;1.20;;;;;;;4.31;98.49;96613.91;5136836;27;20051;-94
2021/12/11 01:32:34;;;;;;;2.05;1.33;;;;;;;4.43;98.79;96617.88;5135398;27;20047;-93
2021/12/11 01:35:03;;;;;;;1.38;1.27;;;;;;;4.45;99.75;96637.09;5135914;27;20043;-94
2021/12/11 01:37:29;;;;;;;1.45;1.20;;;;;;;4.46;98.96;96644.06;5135581;27;20057;-94
2021/12/11 01:39:55;;;;;;;1.23;1.13;;;;;;;4.53;97.87;96634.16;5136644;27;20108;-95
2021/12/11 01:42:25;;;;;;;1.92;1.50;;;;;;;4.55;98.36;96644.63;5137495;27;20043;-94
2021/12/11 01:44:53;;;;;;;1.17;1.10;;;;;;;4.28;98.01;96603.50;5139890;27;20054;-94
2021/12/11 01:47:25;;;;;;;1.27;1.17;;;;;;;4.33;98.61;96608.59;5134750;27;20043;-95
2021/12/11 01:49:56;;;;;;;1.05;1.02;;;;;;;4.39;99.67;96620.66;5132750;27;20505;-93
2021/12/11 01:52:33;;;;;;;1.40;1.30;;;;;;;4.29;100.00;96606.97;5132869;27;20036;-93
2021/12/11 01:55:01;;;;;;;1.30;1.20;;;;;;;4.22;100.00;96608.97;5132779;27;20507;-92
2021/12/11 01:57:29;;;;;;;1.20;1.10;;;;;;;4.29;100.00;96617.50;5132872;27;20040;-94
2021/12/11 02:00:01;;;;;;;1.40;1.17;;;;;;;4.37;100.00;96649.66;5132269;27;20039;-95
2021/12/11 02:02:32;;;;;;;1.92;1.40;;;;;;;4.25;100.00;96623.78;5134597;27;20113;-94
2021/12/11 02:05:00;;;;;;;1.65;1.30;;;;;;;4.30;100.00;96632.38;5135274;27;20100;-94
2021/12/11 02:07:30;;;;;;;2.43;1.50;;;;;;;4.35;100.00;96650.63;5112193;28;20047;-94
2021/12/11 02:09:58;;;;;;;1.33;1.20;;;;;;;4.30;100.00;96635.88;5122924;28;20039;-95
2021/12/11 02:12:31;;;;;;;1.10;1.10;;;;;;;4.46;98.79;96662.47;5138088;27;20050;-94
2021/12/11 02:15:00;;;;;;;1.48;1.38;;;;;;;4.32;99.38;96651.63;5132025;27;20092;-96
2021/12/11 02:17:33;;;;;;;1.83;1.40;;;;;;;4.30;99.01;96641.13;5134268;27;20044;-95
2021/12/11 02:20:06;;;;;;;1.15;1.15;;;;;;;4.33;99.59;96654.16;5135250;27;20050;-95
2021/12/11 02:22:41;;;;;;;1.42;1.25;;;;;;;4.19;100.00;96645.09;5137302;27;20039;-96
2021/12/11 02:25:11;;;;;;;1.45;1.35;;;;;;;4.19;99.67;96643.31;5138418;27;20036;-95
2021/12/11 02:27:42;;;;;;;2.78;1.20;;;;;;;4.21;100.00;96648.50;5127910;27;20067;-94
2021/12/11 02:30:18;;;;;;;3.15;1.10;;;;;;;4.23;99.29;96639.66;5102186;28;20417;-94
2021/12/11 02:32:49;;;;;;;2.20;1.40;;;;;;;4.25;100.00;96644.84;5100418;28;20072;-93
2021/12/11 02:35:21;;;;;;;1.92;1.10;;;;;;;4.32;100.00;96659.50;5101347;28;20394;-94
2021/12/11 02:37:54;;;;;;;1.92;1.23;;;;;;;4.20;100.00;96631.84;5103995;28;20047;-94
2021/12/11 02:40:28;;;;;;;1.15;1.08;;;;;;;4.13;100.00;96626.88;5101759;28;20097;-95
2021/12/11 02:42:57;;;;;;;1.13;1.02;;;;;;;4.22;99.13;96634.44;5104166;28;20044;-95
2021/12/11 02:45:28;;;;;;;1.08;1.00;;;;;;;4.11;99.52;96616.41;5103131;28;20036;-94
2021/12/11 02:47:59;;;;;;;0.80;0.80;;;;;;;4.06;99.21;96624.47;5100987;28;20044;-96
2021/12/11 02:50:30;;;;;;;0.80;0.80;;;;;;;4.01;97.79;96617.63;5102906;28;20055;-92
2021/12/11 02:53:06;;;;;;;0.77;0.77;;;;;;;3.99;97.28;96627.34;5099154;28;20080;-94
2021/12/11 02:55:35;;;;;;;0.70;0.70;;;;;;;4.01;98.04;96647.44;5100881;28;20047;-94
2021/12/11 02:58:03;;;;;;;;;;;;;;;4.07;97.90;96673.50;5100249;28;20044;-93
2021/12/11 03:00:33;;;;;;;0.70;0.70;;;;;;;3.97;94.66;96705.44;5100430;28;20377;-93
2021/12/11 03:03:05;;;;;;;0.70;0.70;;;;;;;3.80;96.36;96675.34;5088445;28;20036;-94
2021/12/11 03:05:40;;;;;;;1.65;0.80;;;;;;;3.70;97.64;96685.28;5101705;28;20040;-95
2021/12/11 03:08:11;;;;;;;1.02;0.85;;;;;;;3.76;98.25;96704.41;5105377;28;20086;-93
2021/12/11 03:10:39;;;;;;;1.35;1.00;;;;;;;3.58;99.30;96675.19;5102120;28;20048;-93
2021/12/11 03:13:05;;;;;;;1.00;0.90;;;;;;;3.56;100.00;96679.63;5104049;28;20046;-95
2021/12/11 03:15:32;;;;;;;0.98;0.98;;;;;;;3.61;100.00;96685.59;5100016;28;20052;-94
2021/12/11 03:17:59;;;;;;;1.38;1.20;;;;;;;3.59;100.00;96673.41;5099882;28;20186;-95
2021/12/11 03:20:26;;;;;;;1.55;0.80;;;;;;;3.63;100.00;96704.81;5100920;28;20039;-93
2021/12/11 03:22:52;;;;;;;0.90;0.90;;;;;;;3.46;100.00;96694.81;5101954;28;20123;-94
2021/12/11 03:25:23;;;;;;;0.80;0.80;;;;;;;3.35;99.72;96693.47;5103129;28;20516;-96
2021/12/11 03:27:49;;;;;;;0.90;0.85;;;;;;;3.25;100.00;96688.50;5102539;28;20075;-94
2021/12/11 03:30:23;;;;;;;0.90;0.90;;;;;;;3.35;100.00;96720.59;5102760;28;20051;-95
2021/12/11 03:32:49;;;;;;;0.70;0.70;;;;;;;3.19;100.00;96701.84;5102606;28;20052;-93
2021/12/11 03:35:15;;;;;;;0.60;0.60;;;;;;;3.18;100.00;96705.34;5102692;28;20064;-94
2021/12/11 03:37:42;;;;;;;0.80;0.63;;;;;;;3.35;100.00;96714.47;5100659;28;20051;-94
2021/12/11 03:40:09;;;;;;;1.15;0.85;;;;;;;3.53;100.00;96734.06;5100942;28;20048;-94
2021/12/11 03:42:40;;;;;;;0.73;0.73;;;;;;;3.35;100.00;96717.97;5102207;28;20150;-93
2021/12/11 03:45:09;;;;;;;1.00;0.93;;;;;;;3.23;100.00;96710.44;5102723;28;20044;-92
2021/12/11 03:47:38;;;;;;;1.10;0.80;;;;;;;3.21;100.00;96707.00;5102286;28;20398;-94
2021/12/11 03:50:07;;;;;;;1.10;1.00;;;;;;;3.23;100.00;96713.97;5101446;28;20040;-94
2021/12/11 03:52:33;;;;;;;0.80;0.80;;;;;;;3.22;100.00;96703.50;5103338;28;20145;-94
2021/12/11 03:55:00;;;;;;;2.60;1.05;;;;;;;3.26;100.00;96705.97;5102307;28;20363;-94
2021/12/11 03:57:28;;;;;;;1.30;0.85;;;;;;;3.23;100.00;96705.19;5101298;28;20043;-92
2021/12/11 03:59:56;;;;;;;0.80;0.80;;;;;;;3.21;100.00;96717.53;5102804;28;20052;-93
2021/12/11 04:02:29;;;;;;;0.90;0.90;;;;;;;3.28;100.00;96716.44;5084915;28;20128;-92
2021/12/11 04:04:57;;;;;;;1.00;1.00;;;;;;;3.38;100.00;96736.25;5102166;28;20044;-92
2021/12/11 04:07:25;;;;;;;1.00;0.90;;;;;;;3.60;100.00;96762.72;5101311;28;20123;-93
2021/12/11 04:09:51;;;;;;;1.50;1.08;;;;;;;3.45;100.00;96729.91;5098801;28;20036;-93
2021/12/11 04:12:19;;;;;;;0.85;0.85;;;;;;;3.47;100.00;96741.22;5103172;28;20182;-95
2021/12/11 04:14:48;;;;;;;1.20;1.10;;;;;;;3.62;100.00;96766.19;5104354;28;20055;-92
2021/12/11 04:17:18;;;;;;;0.90;0.90;;;;;;;3.43;100.00;96723.84;5102502;28;20044;-92
2021/12/11 04:19:46;;;;;;;1.23;1.13;;;;;;;3.48;100.00;96739.47;5105348;28;20048;-95
2021/12/11 04:22:12;;;;;;;1.00;1.00;;;;;;;3.54;100.00;96741.03;5101828;28;20048;-94
2021/12/11 04:24:41;;;;;;;2.20;1.13;;;;;;;3.61;100.00;96758.31;5104075;28;20529;-93
2021/12/11 04:27:09;;;;;;;1.05;1.00;;;;;;;3.66;100.00;96759.88;5103245;28;20544;-93
2021/12/11 04:29:36;;;;;;;1.00;0.90;;;;;;;3.74;100.00;96780.69;5103293;28;20460;-92
2021/12/11 04:32:03;;;;;;;3.10;1.48;;;;;;;3.76;100.00;96804.31;5102416;28;20048;-93
2021/12/11 04:34:33;;;;;;;1.00;1.00;;;;;;;3.70;100.00;96794.81;5105076;28;20047;-94
2021/12/11 04:37:11;;;;;;;1.10;1.10;;;;;;;3.71;100.00;96801.81;5104011;28;20044;-93
2021/12/11 04:39:38;;;;;;;0.90;0.90;;;;;;;3.79;100.00;96826.06;5104760;28;20436;-94
2021/12/11 04:45:12;;;;;;;1.40;1.30;;;;;;;3.83;100.00;96821.59;5155003;27;20130;-93
2021/12/11 04:47:45;;;;;;;3.47;1.30;;;;;;;3.87;100.00;96831.97;5133619;28;20085;-95
2021/12/11 04:50:20;;;;;;;1.25;1.15;;;;;;;3.82;100.00;96822.53;5130601;28;20107;-95
2021/12/11 04:52:54;;;;;;;2.55;1.20;;;;;;;3.82;100.00;96822.53;5137948;28;20053;-94
2021/12/11 05:13:56;;;;;;;1.80;1.45;;;;;;;4.01;98.40;96825.41;5123984;27;20920;-93
2021/12/11 05:16:22;;;;;;;3.10;1.30;;;;;;;4.06;95.28;96799.81;5122327;28;20066;-93
2021/12/11 05:18:48;;;;;;;2.90;1.50;;;;;;;4.07;96.08;96797.13;5104832;28;20044;-93
2021/12/11 05:21:18;;;;;;;2.75;1.40;;;;;;;4.03;97.07;96799.91;5119971;28;20035;-95
2021/12/11 05:23:47;;;;;;;2.00;1.25;;;;;;;4.05;96.29;96796.31;5125699;28;20055;-94
2021/12/11 05:26:18;;;;;;;3.17;1.80;;;;;;;4.32;95.06;96827.91;5122161;28;20122;-92
2021/12/11 05:28:44;;;;;;;3.33;1.75;;;;;;;4.13;94.95;96782.94;5120851;28;20134;-94
2021/12/11 05:31:15;;;;;;;3.15;2.00;;;;;;;4.23;94.36;96825.56;5120775;28;20043;-95
2021/12/11 05:33:43;;;;;;;7.63;2.58;;;;;;;4.28;92.50;96803.44;5121992;28;20036;-96
2021/12/11 05:36:12;;;;;;;4.60;2.70;;;;;;;4.38;90.91;96811.91;5120660;28;20051;-94
2021/12/11 05:38:41;;;;;;;4.28;2.40;;;;;;;4.27;92.68;96819.28;5119014;28;20036;-94
2021/12/11 05:41:12;;;;;;;7.20;2.45;;;;;;;4.39;92.36;96849.59;5121360;28;20044;-94
2021/12/11 05:43:39;;;;;;;3.22;2.30;;;;;;;4.36;93.30;96850.56;5110520;28;20036;-93
2021/12/11 05:46:06;;;;;;;4.32;2.42;;;;;;;4.29;93.42;96852.56;5117392;28;20509;-94
2021/12/11 05:48:34;;;;;;;3.80;2.30;;;;;;;4.21;93.02;96849.31;5119266;28;20402;-94
2021/12/11 05:51:07;;;;;;;5.93;2.35;;;;;;;4.31;92.80;96855.09;5118699;28;20067;-93
2021/12/11 05:53:34;;;;;;;4.28;2.53;;;;;;;4.23;92.57;96855.38;5118898;28;20062;-94
2021/12/11 05:56:06;;;;;;;4.10;2.50;;;;;;;4.26;90.96;96876.31;5121265;28;20052;-93
2021/12/11 06:01:45;;;;;;;6.70;3.15;;;;;;;4.28;91.40;96887.66;5205651;27;20342;-94
2021/12/11 06:04:14;;;;;;;4.97;2.80;;;;;;;4.29;91.90;96905.19;5194270;27;20042;-94
2021/12/11 06:06:41;;;;;;;4.95;2.72;;;;;;;4.25;90.08;96903.53;5188176;27;20111;-94
2021/12/11 06:09:27;;;;;;;4.85;2.80;;;;;;;4.37;92.08;96946.16;5183300;27;20070;-96
2021/12/11 06:12:36;;;;;;;4.35;2.53;;;;;;;4.19;91.89;96916.88;5202717;27;20077;-96
2021/12/11 06:15:11;;;;;;;5.20;3.72;;;;;;;4.20;89.17;96923.84;5208107;27;20025;-96
2021/12/11 06:17:53;;;;;;;4.15;2.70;;;;;;;4.17;91.48;96904.69;5202005;27;20046;-93
2021/12/11 06:20:44;;;;;;;4.18;2.58;;;;;;;4.23;87.45;96913.25;5184528;27;20034;-96
2021/12/11 06:23:18;;;;;;;16.65;2.95;;;;;;;4.37;87.13;96904.91;5155696;27;20404;-95
2021/12/11 06:25:50;;;;;;;4.70;2.63;;;;;;;4.45;86.15;96912.56;5162649;27;20072;-94
2021/12/11 06:28:24;;;;;;;4.90;2.65;;;;;;;4.61;84.66;96924.31;5163600;27;20034;-96
2021/12/11 06:30:54;;;;;;;4.68;2.83;;;;;;;4.50;89.08;96940.44;5167944;27;20026;-94
2021/12/11 06:33:48;;;;;;;3.90;3.05;;;;;;;4.46;86.28;96936.19;5182667;27;20056;-95
2021/12/11 06:36:28;;;;;;;4.35;2.70;;;;;;;4.45;86.84;96944.16;5169948;27;20085;-96
2021/12/11 06:39:00;;;;;;;3.40;2.03;;;;;;;4.74;85.14;96962.47;5181644;27;20038;-96
2021/12/11 06:41:32;;;;;;;5.40;2.60;;;;;;;4.58;87.10;96939.34;5183110;27;20046;-96
2021/12/11 06:43:59;;;;;;;5.88;2.72;;;;;;;4.62;87.24;96954.13;5183459;27;20046;-94
2021/12/11 06:46:25;;;;;;;4.47;2.80;;;;;;;4.81;85.85;96984.19;5181556;27;20043;-93
2021/12/11 06:48:53;;;;;;;6.03;2.63;;;;;;;4.64;85.72;96957.56;5163501;27;20043;-94
2021/12/11 06:51:19;;;;;;;3.67;2.80;;;;;;;4.70;85.01;96960.84;5170234;27;20046;-95
2021/12/11 06:53:52;;;;;;;4.03;2.63;;;;;;;4.88;82.99;96963.78;5159995;27;20426;-95
2021/12/11 06:56:20;;;;;;;4.97;3.10;;;;;;;4.85;81.91;96970.03;5161131;27;20130;-95
2021/12/11 06:58:46;;;;;;;5.68;3.13;;;;;;;5.10;81.82;96987.66;5162491;27;20400;-96
2021/12/11 07:01:13;;;;;;;5.30;3.03;;;;;;;5.18;83.72;97021.63;5160405;27;20051;-95
2021/12/11 07:03:40;;;;;;;6.03;4.00;;;;;;;5.09;81.05;96991.19;5165093;27;20079;-93
2021/12/11 07:06:08;;;;;;;6.07;3.90;;;;;;;5.11;80.07;96995.50;5164881;27;20051;-94
2021/12/11 07:08:38;;;;;;;6.88;3.28;;;;;;;5.18;80.35;96990.03;5160743;27;20047;-95
2021/12/11 07:11:05;;;;;;;;;;;;;;;5.41;80.85;97039.31;5154705;27;20442;-93
2021/12/11 07:13:32;;;;;;;6.35;3.70;;;;;;;5.32;81.81;97041.34;5148552;27;19919;-95
2021/12/11 07:15:59;;;;;;;6.85;4.00;;;;;;;5.12;80.65;97010.41;5158078;27;20121;-95
2021/12/11 07:18:27;;;;;;;6.97;3.97;;;;;;;5.19;81.46;97026.00;5167308;27;20042;-93
2021/12/11 07:20:54;;;;;;;7.57;4.38;;;;;;;5.02;82.25;97002.84;5168507;27;20094;-95
2021/12/11 07:23:22;;;;;;;7.35;4.55;;;;;;;4.97;84.70;97021.44;5151035;27;20043;-94
2021/12/11 07:25:53;;;;;;;8.80;4.50;;;;;;;5.01;83.62;97048.53;5167388;27;20070;-95
2021/12/11 07:28:21;;;;;;;7.30;4.15;;;;;;;5.00;81.19;97041.56;5165461;27;20050;-95
2021/12/11 07:30:55;;;;;;;8.43;4.38;;;;;;;5.06;81.44;97057.16;5166967;27;20423;-96
2021/12/11 07:33:21;;;;;;;6.40;4.25;;;;;;;5.01;80.98;97038.00;5154395;27;20075;-94
2021/12/11 07:35:49;;;;;;;7.57;4.10;;;;;;;5.26;80.44;97096.03;5165571;27;20030;-95
2021/12/11 07:38:16;;;;;;;6.63;4.85;;;;;;;5.20;80.42;97075.16;5167005;27;20043;-95
2021/12/11 07:40:46;;;;;;;19.95;10.32;;;;;;;5.27;79.13;97067.00;5156901;27;20054;-95
2021/12/11 07:43:14;;;;;;;10.18;6.05;;;;;;;5.22;78.96;97054.88;5145323;27;20065;-93
2021/12/11 07:45:41;;;;;;;9.25;4.65;;;;;;;5.29;78.92;97081.00;5147368;27;20053;-94
2021/12/11 07:48:07;;;;;;;6.93;4.15;;;;;;;5.16;80.01;97061.19;5161469;27;20067;-96
2021/12/11 07:50:33;;;;;;;11.35;6.43;;;;;;;5.23;79.20;97106.69;5159124;27;20046;-93
2021/12/11 07:53:00;;;;;;;8.95;4.70;;;;;;;5.19;77.82;97091.88;5151448;27;20073;-94
2021/12/11 07:55:28;;;;;;;10.40;6.68;;;;;;;5.33;76.78;97105.47;5160713;27;20365;-93
2021/12/11 07:57:56;;;;;;;11.23;4.75;;;;;;;5.32;77.60;97083.50;5163901;27;20046;-96
2021/12/11 08:00:25;;;;;;;10.27;4.80;;;;;;;5.34;77.48;97102.78;5165355;27;20051;-95
2021/12/11 08:02:51;;;;;;;11.80;4.00;;;;;;;5.50;76.85;97129.47;5163204;27;20403;-94
2021/12/11 08:05:17;;;;;;;7.30;4.35;;;;;;;5.53;76.91;97128.50;5154762;27;20035;-94
2021/12/11 08:07:43;;;;;;;6.95;4.03;;;;;;;5.31;77.66;97113.44;5154320;27;20107;-93
2021/12/11 08:10:14;;;;;;;7.70;4.50;;;;;;;5.36;77.39;97129.09;5161906;27;20051;-95
2021/12/11 08:12:41;;;;;;;9.00;4.07;;;;;;;5.37;76.73;97107.09;5162073;27;20046;-96
2021/12/11 08:15:11;;;;;;;6.97;3.70;;;;;;;5.62;76.36;97164.28;5159284;27;20043;-92
2021/12/11 08:17:37;;;;;;;7.43;3.78;;;;;;;5.49;77.96;97137.47;5161544;27;20046;-95
2021/12/11 08:20:08;;;;;;;8.70;4.00;;;;;;;5.50;76.98;97142.66;5161844;27;20031;-94
2021/12/11 08:22:34;;;;;;;12.20;4.85;;;;;;;5.68;76.13;97166.69;5146276;27;20055;-96
2021/12/11 08:25:00;;;;;;;6.85;3.83;;;;;;;5.46;77.53;97142.81;5142105;27;20039;-95
2021/12/11 08:27:27;;;;;;;9.85;5.10;;;;;;;5.51;77.28;97183.97;5148154;27;20551;-93
2021/12/11 08:29:55;;;;;;;8.07;3.80;;;;;;;5.55;75.19;97182.94;5153832;27;20039;-92
2021/12/11 08:32:25;;;;;;;7.00;4.25;;;;;;;5.69;75.57;97189.53;5149530;27;20043;-96
2021/12/11 08:34:54;;;;;;;6.03;3.83;;;;;;;5.61;76.80;97175.72;5141141;27;20054;-96
2021/12/11 08:37:22;;;;;;;5.95;3.85;;;;;;;5.55;75.52;97179.41;5159287;27;20579;-95
2021/12/11 08:39:50;;;;;;;9.82;5.50;;;;;;;5.66;76.01;97197.53;5153433;27;20165;-94
2021/12/11 08:42:19;;;;;;;8.65;4.43;;;;;;;5.92;75.60;97231.84;5156549;27;20043;-95
2021/12/11 08:47:50;;;;;;;11.57;6.00;;;;;;;5.85;74.47;97214.47;5189463;27;20367;-93
2021/12/11 08:50:19;;;;;;;6.88;4.07;;;;;;;5.96;75.15;97241.44;5158416;27;20046;-94
2021/12/11 08:52:49;;;;;;;8.35;4.18;;;;;;;5.88;74.76;97234.66;5157219;27;20099;-93
2021/12/11 08:55:18;;;;;;;6.05;3.63;;;;;;;5.94;72.67;97224.78;5159163;27;20049;-95
2021/12/11 08:57:48;;;;;;;;;;;;;;;6.13;73.70;97282.22;5140831;27;20081;-93
2021/12/11 09:00:17;;;;;;;;;;;;;;;6.21;73.71;97274.03;5151030;27;19919;-94
2021/12/11 09:02:49;;;;;;;6.70;3.20;;;;;;;6.06;73.50;97254.31;5141149;27;19930;-94
2021/12/11 09:05:22;;;;;;;11.10;4.35;;;;;;;6.10;73.48;97295.50;5137014;27;20043;-94
2021/12/11 09:07:52;;;;;;;6.35;3.30;;;;;;;6.08;72.10;97289.44;5136728;27;20039;-94
2021/12/11 09:10:21;;;;;;;13.35;5.28;;;;;;;6.04;72.93;97282.53;5135610;27;20039;-94
2021/12/11 09:12:54;;;;;;;6.60;3.40;;;;;;;6.00;73.02;97296.72;5135416;27;20075;-91
2021/12/11 09:15:24;;;;;;;10.13;4.72;;;;;;;5.85;73.54;97295.41;5134847;27;20043;-95
2021/12/11 09:17:56;;;;;;;7.95;4.30;;;;;;;5.86;74.28;97310.34;5135630;27;20044;-94
2021/12/11 09:20:27;;;;;;;5.90;3.17;;;;;;;5.70;73.84;97281.81;5136462;27;20043;-94
2021/12/11 09:22:55;;;;;;;8.68;4.47;;;;;;;5.72;74.07;97285.22;5134864;27;20078;-95
2021/12/11 09:25:27;;;;;;;6.32;3.58;;;;;;;5.85;74.61;97305.94;5134567;28;20051;-96
2021/12/11 09:28:00;;;;;;;7.00;3.40;;;;;;;6.00;74.23;97321.31;5136199;27;20043;-96
2021/12/11 09:30:31;;;;;;;6.20;3.90;;;;;;;5.76;74.84;97313.22;5136964;27;20044;-95
2021/12/11 09:33:02;;;;;;;7.03;3.38;;;;;;;5.77;74.63;97324.69;5135915;27;20036;-95
2021/12/11 09:35:33;;;;;;;8.13;4.03;;;;;;;5.84;75.21;97336.75;5136145;28;20397;-96
2021/12/11 09:38:14;;;;;;;7.72;3.83;;;;;;;5.81;74.18;97328.91;5138443;27;20047;-93
2021/12/11 09:40:54;;;;;;;7.35;3.60;;;;;;;6.05;75.58;97358.13;5139925;27;20046;-94
2021/12/11 09:43:40;;;;;;;8.60;3.63;;;;;;;5.74;75.33;97332.66;5136366;28;20457;-95
2021/12/11 09:46:16;;;;;;;7.50;3.78;;;;;;;5.78;74.13;97334.31;5136640;28;20066;-95
2021/12/11 09:48:44;;;;;;;7.78;4.25;;;;;;;5.98;74.60;97362.72;5140074;28;20054;-95
2021/12/11 09:51:13;;;;;;;6.95;3.67;;;;;;;5.87;73.99;97328.72;5138202;28;20085;-94
2021/12/11 09:53:46;;;;;;;6.53;3.60;;;;;;;5.82;74.49;97335.06;5137041;27;20103;-95
2021/12/11 09:56:19;;;;;;;10.18;4.07;;;;;;;5.91;74.45;97348.84;5137754;27;20070;-95
2021/12/11 09:58:47;;;;;;;7.30;3.92;;;;;;;5.92;74.22;97345.28;5123456;28;20038;-92
2021/12/11 10:01:16;;;;;;;8.40;4.50;;;;;;;6.03;74.24;97365.22;5125203;28;20043;-92
2021/12/11 10:03:48;;;;;;;6.32;3.70;;;;;;;6.09;74.02;97325.44;5124438;28;20051;-95
2021/12/11 10:09:33;;;;;;;7.10;4.10;;;;;;;6.66;73.24;97366.69;5136874;27;20120;-94
2021/12/11 10:12:02;;;;;;;6.90;4.65;;;;;;;6.74;72.69;97367.31;5136586;27;20142;-96
2021/12/11 10:14:35;;;;;;;7.75;4.53;;;;;;;6.89;72.16;97362.38;5125179;27;20048;-92
2021/12/11 10:17:08;;;;;;;6.90;3.95;;;;;;;7.25;71.82;97344.34;5118326;28;20070;-94
2021/12/11 10:19:35;;;;;;;8.98;4.60;;;;;;;7.07;71.60;97374.06;5117781;28;20051;-93
2021/12/11 10:22:08;;;;;;;8.07;4.63;;;;;;;6.99;73.18;97369.06;5115402;28;20044;-93
2021/12/11 10:24:37;;;;;;;14.23;7.05;;;;;;;6.84;72.45;97380.19;5115967;28;20126;-94
2021/12/11 10:27:09;;;;;;;8.00;4.40;;;;;;;6.69;72.49;97382.41;5115867;28;20040;-94
2021/12/11 10:29:35;;;;;;;8.60;4.20;;;;;;;6.29;73.14;97345.91;5114071;28;20039;-94
2021/12/11 10:32:06;;;;;;;9.48;4.55;;;;;;;6.57;73.18;97366.97;5114874;28;20040;-94
2021/12/11 10:34:34;;;;;;;7.40;4.50;;;;;;;6.64;71.41;97349.16;5119120;28;20044;-94
2021/12/11 10:37:04;;;;;;;9.18;4.80;;;;;;;6.81;71.16;97373.22;5118126;28;20043;-91
2021/12/11 10:39:30;;;;;;;13.75;4.57;;;;;;;6.94;71.26;97365.72;5115921;28;20047;-91
2021/12/11 10:41:58;;;;;;;7.47;4.35;;;;;;;7.00;69.88;97381.38;5118415;28;20366;-94
2021/12/11 10:44:27;;;;;;;10.68;6.88;;;;;;;6.97;70.27;97386.78;5124167;28;20036;-95
2021/12/11 10:47:03;;;;;;;7.35;4.78;;;;;;;6.99;70.21;97366.44;5122013;28;20066;-96
2021/12/11 10:49:39;;;;;;;10.02;4.40;;;;;;;7.45;67.83;97379.78;5123912;28;20044;-95
2021/12/11 10:52:10;;;;;;;11.45;4.20;;;;;;;7.59;66.79;97349.25;5122893;28;20500;-95
2021/12/11 10:54:36;;;;;;;9.07;4.05;;;;;;;7.85;67.29;97373.84;5122845;28;20502;-95
2021/12/11 10:57:08;;;;;;;10.50;4.63;;;;;;;7.92;67.54;97361.25;5121875;28;20056;-96
2021/12/11 10:59:45;;;;;;;7.30;3.40;;;;;;;8.18;65.70;97352.28;5123273;28;20044;-95
2021/12/11 11:02:13;;;;;;;7.63;4.53;;;;;;;7.63;67.05;97365.84;5118733;28;20058;-93
2021/12/11 11:04:42;;;;;;;6.73;3.30;;;;;;;7.96;67.30;97369.00;5121825;28;20046;-96
2021/12/11 11:07:18;;;;;;;7.65;3.88;;;;;;;7.81;65.26;97401.34;5122327;28;20047;-94
2021/12/11 11:09:44;;;;;;;9.00;4.18;;;;;;;7.28;68.25;97346.00;5120425;28;20040;-94
2021/12/11 11:12:16;;;;;;;6.20;3.10;;;;;;;7.13;66.79;97366.78;5120851;28;20110;-95
2021/12/11 11:14:43;;;;;;;6.93;4.22;;;;;;;6.94;68.78;97393.03;5124808;28;20046;-92
2021/12/11 11:17:13;;;;;;;8.77;4.07;;;;;;;6.69;68.24;97361.28;5121006;28;20044;-95
2021/12/11 11:19:40;;;;;;;6.82;4.60;;;;;;;6.62;68.69;97374.78;5113251;28;20047;-92
2021/12/11 11:22:10;;;;;;;6.68;4.70;;;;;;;6.66;68.61;97369.34;5107877;28;20077;-96
2021/12/11 11:24:39;;;;;;;9.07;4.75;;;;;;;6.85;69.41;97409.19;5106605;28;20075;-95
2021/12/11 11:27:08;;;;;;;10.95;6.80;;;;;;;6.74;69.42;97385.78;5108904;28;20501;-93
2021/12/11 11:29:38;;;;;;;8.80;5.20;;;;;;;6.66;69.27;97393.09;5105971;28;20039;-92
2021/12/11 11:32:11;;;;;;;8.32;4.43;;;;;;;6.60;69.41;97395.09;5106697;28;20288;-93
2021/12/11 11:34:41;;;;;;;8.55;4.70;;;;;;;6.55;69.63;97372.34;5108075;28;20070;-95
2021/12/11 11:37:10;;;;;;;6.75;3.70;;;;;;;6.52;69.18;97379.47;5109238;28;20047;-95
2021/12/11 11:39:40;;;;;;;6.33;3.70;;;;;;;6.60;69.56;97363.41;5106053;28;20051;-95
2021/12/11 11:42:17;;;;;;;6.97;4.22;;;;;;;6.57;69.58;97382.81;5107000;28;20044;-93
2021/12/11 11:44:50;;;;;;;8.25;4.40;;;;;;;6.49;69.84;97390.16;5107337;28;20044;-91
2021/12/11 11:47:20;;;;;;;6.18;3.50;;;;;;;6.55;69.71;97406.66;5107747;28;20040;-92
2021/12/11 11:49:55;;;;;;;5.53;3.65;;;;;;;6.65;69.31;97424.84;5105902;28;20051;-95
2021/12/11 11:52:22;;;;;;;7.50;3.65;;;;;;;6.48;70.92;97398.97;5106387;28;20036;-94
2021/12/11 11:54:51;;;;;;;6.68;4.18;;;;;;;6.51;70.73;97436.72;5108718;28;20417;-93
2021/12/11 11:57:20;;;;;;;6.78;4.25;;;;;;;6.35;70.87;97444.28;5105574;28;20044;-93
2021/12/11 12:03:23;;;;;;;7.22;3.67;;;;;;;6.48;71.55;97430.66;5209948;22;20072;-90
2021/12/11 12:06:05;;;;;;;10.10;4.03;;;;;;;6.31;69.94;97418.00;5051792;28;20045;-91
2021/12/11 12:08:53;;;;;;;5.95;3.40;;;;;;;6.51;70.27;97425.31;5055865;28;20034;-95
2021/12/11 12:11:22;;;;;;;7.45;3.88;;;;;;;6.36;69.50;97419.59;5137661;22;20104;-91
2021/12/11 12:13:49;;;;;;;7.45;4.18;;;;;;;6.34;68.56;97417.91;5106109;28;20417;-95
2021/12/11 12:16:15;;;;;;;6.55;3.92;;;;;;;6.43;68.00;97428.19;5094795;28;20044;-95
2021/12/11 12:18:43;;;;;;;7.43;4.35;;;;;;;6.49;67.70;97427.13;5102302;28;20075;-95
2021/12/11 12:21:11;;;;;;;8.15;3.97;;;;;;;6.63;68.54;97432.81;5100722;28;20105;-94
2021/12/11 12:23:40;;;;;;;7.60;4.28;;;;;;;6.51;68.01;97434.09;5102578;28;20052;-95
2021/12/11 12:26:12;;;;;;;6.50;3.90;;;;;;;6.55;67.48;97421.66;5102238;28;20072;-94
2021/12/11 12:28:40;;;;;;;6.82;3.83;;;;;;;6.64;68.08;97433.69;5102385;28;20093;-95
2021/12/11 12:31:11;;;;;;;6.45;4.13;;;;;;;6.67;68.17;97431.78;5091702;28;20059;-94